createdAt,value
2018-03-16T00:00:30.780Z,992.90
2018-03-16T00:01:06.328Z,992.85
2018-03-16T00:01:41.926Z,992.87
2018-03-16T00:02:17.048Z,992.81
2018-03-16T00:02:52.373Z,992.80
2018-03-16T00:03:27.824Z,992.82
2018-03-16T00:04:02.836Z,992.79
2018-03-16T00:04:39.146Z,992.88
2018-03-16T00:05:14.483Z,992.84
2018-03-16T00:05:49.918Z,992.84
2018-03-16T00:06:25.032Z,992.82
2018-03-16T00:07:00.669Z,992.83
2018-03-16T00:07:36.286Z,992.78
2018-03-16T00:08:11.791Z,992.83
2018-03-16T00:10:48.633Z,992.85
2018-03-16T00:11:23.932Z,992.85
2018-03-16T00:11:59.218Z,992.83
2018-03-16T00:12:34.569Z,992.83
2018-03-16T00:13:09.972Z,992.83
2018-03-16T00:13:45.677Z,992.83
2018-03-16T00:14:20.677Z,992.82
2018-03-16T00:14:55.995Z,992.88
2018-03-16T00:15:31.364Z,992.85
2018-03-16T00:16:06.686Z,992.88
2018-03-16T00:16:41.951Z,992.86
2018-03-16T00:17:17.266Z,992.83
2018-03-16T00:17:52.799Z,992.84
2018-03-16T00:18:28.105Z,992.81
2018-03-16T00:19:03.397Z,992.84
2018-03-16T00:19:38.921Z,992.89
2018-03-16T00:20:14.599Z,992.82
2018-03-16T00:20:50.646Z,992.78
2018-03-16T00:21:26.059Z,992.84
2018-03-16T00:22:01.465Z,992.78
2018-03-16T00:22:36.761Z,992.82
2018-03-16T00:23:12.094Z,992.83
2018-03-16T00:23:47.566Z,992.86
2018-03-16T00:24:23.285Z,992.86
2018-03-16T00:24:58.858Z,992.87
2018-03-16T00:25:34.062Z,992.89
2018-03-16T00:26:09.544Z,992.91
2018-03-16T00:26:44.760Z,992.87
2018-03-16T00:27:20.065Z,992.89
2018-03-16T00:27:55.595Z,992.83
2018-03-16T00:28:30.605Z,992.83
2018-03-16T00:29:06.208Z,992.86
2018-03-16T00:29:41.801Z,992.91
2018-03-16T00:30:17.492Z,992.88
2018-03-16T00:30:52.956Z,992.83
2018-03-16T00:31:28.272Z,992.88
2018-03-16T00:32:03.471Z,992.86
2018-03-16T00:32:39.195Z,992.89
2018-03-16T00:33:14.745Z,992.90
2018-03-16T00:33:50.176Z,992.93
2018-03-16T00:34:25.385Z,992.91
2018-03-16T00:35:00.680Z,992.89
2018-03-16T00:35:36.276Z,992.93
2018-03-16T00:36:11.592Z,992.89
2018-03-16T00:36:47.207Z,992.90
2018-03-16T00:37:22.507Z,992.92
2018-03-16T00:37:58.037Z,992.98
2018-03-16T00:38:33.885Z,992.95
2018-03-16T00:39:08.969Z,992.98
2018-03-16T00:39:44.590Z,992.97
2018-03-16T00:40:19.984Z,992.97
2018-03-16T00:40:55.198Z,992.97
2018-03-16T00:41:30.392Z,992.97
2018-03-16T00:42:05.605Z,993.02
2018-03-16T00:42:40.927Z,992.99
2018-03-16T00:43:16.241Z,993.08
2018-03-16T00:43:51.336Z,993.06
2018-03-16T00:44:27.054Z,993.06
2018-03-16T00:45:02.251Z,993.06
2018-03-16T00:45:37.779Z,993.06
2018-03-16T00:46:13.163Z,993.07
2018-03-16T00:46:48.460Z,993.08
2018-03-16T00:47:23.648Z,993.12
2018-03-16T00:47:59.131Z,993.08
2018-03-16T00:48:34.312Z,993.09
2018-03-16T00:49:09.916Z,993.07
2018-03-16T00:49:45.312Z,993.08
2018-03-16T00:50:20.661Z,993.06
2018-03-16T00:50:56.162Z,993.12
2018-03-16T00:51:31.456Z,993.04
2018-03-16T00:52:06.542Z,993.09
2018-03-16T00:52:42.082Z,993.07
2018-03-16T00:53:17.556Z,993.10
2018-03-16T00:53:52.690Z,993.08
2018-03-16T00:54:27.995Z,993.10
2018-03-16T00:55:03.505Z,993.06
2018-03-16T00:55:39.424Z,993.06
2018-03-16T00:56:14.813Z,993.06
2018-03-16T00:56:50.223Z,993.03
2018-03-16T00:57:25.583Z,993.04
2018-03-16T00:58:01.691Z,993.05
2018-03-16T00:58:37.112Z,993.05
2018-03-16T00:59:12.423Z,993.08
2018-03-16T00:59:47.643Z,993.07
2018-03-16T01:00:23.052Z,993.07
2018-03-16T01:01:01.662Z,993.12
2018-03-16T01:01:37.174Z,993.08
2018-03-16T01:02:12.323Z,993.11
2018-03-16T01:02:47.480Z,993.12
2018-03-16T01:03:22.724Z,993.14
2018-03-16T01:03:58.320Z,993.15
2018-03-16T01:04:33.673Z,993.19
2018-03-16T01:05:09.165Z,993.16
2018-03-16T01:05:44.592Z,993.21
2018-03-16T01:06:20.051Z,993.19
2018-03-16T01:06:55.264Z,993.17
2018-03-16T01:07:30.560Z,993.20
2018-03-16T01:08:06.135Z,993.16
2018-03-16T01:08:41.437Z,993.21
2018-03-16T01:09:16.959Z,993.18
2018-03-16T01:09:52.328Z,993.15
2018-03-16T01:10:27.556Z,993.17
2018-03-16T01:11:02.740Z,993.21
2018-03-16T01:11:37.965Z,993.20
2018-03-16T01:12:13.010Z,993.15
2018-03-16T01:12:48.249Z,993.17
2018-03-16T01:13:23.652Z,993.20
2018-03-16T01:13:58.957Z,993.21
2018-03-16T01:14:34.444Z,993.16
2018-03-16T01:15:09.762Z,993.23
2018-03-16T01:15:45.535Z,993.16
2018-03-16T01:16:20.748Z,993.13
2018-03-16T01:16:56.075Z,993.22
2018-03-16T01:17:31.488Z,993.17
2018-03-16T01:18:06.821Z,993.21
2018-03-16T01:18:42.136Z,993.20
2018-03-16T01:19:17.402Z,993.16
2018-03-16T01:19:52.832Z,993.16
2018-03-16T01:20:28.330Z,993.12
2018-03-16T01:21:03.744Z,993.14
2018-03-16T01:21:39.244Z,993.10
2018-03-16T01:22:14.453Z,993.14
2018-03-16T01:22:49.958Z,993.08
2018-03-16T01:23:25.391Z,993.06
2018-03-16T01:24:00.700Z,993.08
2018-03-16T01:24:36.239Z,993.14
2018-03-16T01:25:11.453Z,993.10
2018-03-16T01:25:46.781Z,993.08
2018-03-16T01:26:22.485Z,993.13
2018-03-16T01:26:57.799Z,993.09
2018-03-16T01:27:32.999Z,993.10
2018-03-16T01:28:08.578Z,993.09
2018-03-16T01:28:43.880Z,993.09
2018-03-16T01:29:19.395Z,993.06
2018-03-16T01:29:55.163Z,993.02
2018-03-16T01:30:31.577Z,993.01
2018-03-16T01:31:06.969Z,993.07
2018-03-16T01:31:42.477Z,993.03
2018-03-16T01:32:18.164Z,993.03
2018-03-16T01:32:53.759Z,993.05
2018-03-16T01:33:28.823Z,993.04
2018-03-16T01:34:04.332Z,993.08
2018-03-16T01:34:39.741Z,993.03
2018-03-16T01:35:15.358Z,993.05
2018-03-16T01:35:51.034Z,993.02
2018-03-16T01:36:26.356Z,993.07
2018-03-16T01:37:01.943Z,993.02
2018-03-16T01:37:37.182Z,993.05
2018-03-16T01:38:12.423Z,993.04
2018-03-16T01:38:47.858Z,993.04
2018-03-16T01:39:23.166Z,993.02
2018-03-16T01:39:58.591Z,993.07
2018-03-16T01:40:34.188Z,993.03
2018-03-16T01:41:09.509Z,993.08
2018-03-16T01:41:44.919Z,992.99
2018-03-16T01:42:20.149Z,993.00
2018-03-16T01:42:55.294Z,993.03
2018-03-16T01:43:30.616Z,993.03
2018-03-16T01:44:05.805Z,993.02
2018-03-16T01:44:40.940Z,993.01
2018-03-16T01:45:16.300Z,993.00
2018-03-16T01:45:51.731Z,992.98
2018-03-16T01:46:27.127Z,992.92
2018-03-16T01:47:02.638Z,992.98
2018-03-16T01:47:37.823Z,992.96
2018-03-16T01:48:13.375Z,992.97
2018-03-16T01:48:48.473Z,993.00
2018-03-16T01:49:24.283Z,993.00
2018-03-16T01:49:59.892Z,992.97
2018-03-16T01:50:35.521Z,992.98
2018-03-16T01:51:10.722Z,993.00
2018-03-16T01:51:46.045Z,992.96
2018-03-16T01:52:21.333Z,992.98
2018-03-16T01:52:56.902Z,993.01
2018-03-16T01:53:32.520Z,992.97
2018-03-16T01:54:08.157Z,993.00
2018-03-16T01:54:43.556Z,993.00
2018-03-16T01:55:19.083Z,993.01
2018-03-16T01:55:54.492Z,993.05
2018-03-16T01:56:30.089Z,993.03
2018-03-16T01:57:05.396Z,993.04
2018-03-16T01:57:40.664Z,993.03
2018-03-16T01:58:16.041Z,993.09
2018-03-16T01:58:51.349Z,993.05
2018-03-16T01:59:26.618Z,993.06
2018-03-16T02:00:01.810Z,993.07
2018-03-16T02:00:38.612Z,993.05
2018-03-16T02:01:13.951Z,993.07
2018-03-16T02:01:49.516Z,993.07
2018-03-16T02:02:24.965Z,993.06
2018-03-16T02:03:00.134Z,993.08
2018-03-16T02:03:35.252Z,993.12
2018-03-16T02:04:10.741Z,993.16
2018-03-16T02:04:46.874Z,993.06
2018-03-16T02:05:22.230Z,993.14
2018-03-16T02:05:57.637Z,993.12
2018-03-16T02:06:32.825Z,993.22
2018-03-16T02:07:08.039Z,993.18
2018-03-16T02:07:43.404Z,993.18
2018-03-16T02:08:18.895Z,993.18
2018-03-16T02:08:54.106Z,993.21
2018-03-16T02:09:29.426Z,993.25
2018-03-16T02:10:04.922Z,993.25
2018-03-16T02:10:40.341Z,993.23
2018-03-16T02:11:15.793Z,993.21
2018-03-16T02:11:51.229Z,993.21
2018-03-16T02:12:26.634Z,993.19
2018-03-16T02:13:01.848Z,993.20
2018-03-16T02:13:37.246Z,993.18
2018-03-16T02:14:12.648Z,993.23
2018-03-16T02:14:48.043Z,993.20
2018-03-16T02:15:23.456Z,993.22
2018-03-16T02:15:58.567Z,993.22
2018-03-16T02:16:33.683Z,993.25
2018-03-16T02:17:09.288Z,993.26
2018-03-16T02:17:44.627Z,993.30
2018-03-16T02:18:19.808Z,993.26
2018-03-16T02:18:55.133Z,993.27
2018-03-16T02:19:30.453Z,993.29
2018-03-16T02:20:05.875Z,993.23
2018-03-16T02:20:42.436Z,993.20
2018-03-16T02:21:17.860Z,993.23
2018-03-16T02:21:53.251Z,993.30
2018-03-16T02:22:28.569Z,993.20
2018-03-16T02:23:03.689Z,993.16
2018-03-16T02:23:39.022Z,993.17
2018-03-16T02:24:14.329Z,993.18
2018-03-16T02:24:49.678Z,993.21
2018-03-16T02:25:24.665Z,993.16
2018-03-16T02:26:01.697Z,993.18
2018-03-16T02:26:37.104Z,993.19
2018-03-16T02:27:12.819Z,993.11
2018-03-16T02:27:48.455Z,993.10
2018-03-16T02:28:23.966Z,993.17
2018-03-16T02:28:59.249Z,993.13
2018-03-16T02:29:34.895Z,993.09
2018-03-16T02:32:22.528Z,993.15
2018-03-16T02:32:57.770Z,993.18
2018-03-16T02:33:33.158Z,993.17
2018-03-16T02:34:08.647Z,993.20
2018-03-16T02:34:44.119Z,993.15
2018-03-16T02:35:19.538Z,993.24
2018-03-16T02:35:54.949Z,993.21
2018-03-16T02:36:30.746Z,993.26
2018-03-16T02:37:06.025Z,993.21
2018-03-16T02:37:41.657Z,993.23
2018-03-16T02:38:17.139Z,993.25
2018-03-16T02:38:53.851Z,993.21
2018-03-16T02:39:30.047Z,993.25
2018-03-16T02:40:05.668Z,993.24
2018-03-16T02:40:41.056Z,993.25
2018-03-16T02:41:16.360Z,993.18
2018-03-16T02:41:51.643Z,993.19
2018-03-16T02:42:26.950Z,993.21
2018-03-16T02:43:02.056Z,993.17
2018-03-16T02:43:37.251Z,993.24
2018-03-16T02:44:12.937Z,993.18
2018-03-16T02:44:48.153Z,993.22
2018-03-16T02:45:23.455Z,993.20
2018-03-16T02:45:58.687Z,993.19
2018-03-16T02:46:33.987Z,993.20
2018-03-16T02:47:09.445Z,993.18
2018-03-16T02:47:44.878Z,993.19
2018-03-16T02:48:20.338Z,993.19
2018-03-16T02:48:55.945Z,993.19
2018-03-16T02:49:31.288Z,993.20
2018-03-16T02:50:06.987Z,993.15
2018-03-16T02:50:42.428Z,993.15
2018-03-16T02:51:17.751Z,993.11
2018-03-16T02:51:52.897Z,993.15
2018-03-16T02:52:28.526Z,993.13
2018-03-16T02:53:03.812Z,993.14
2018-03-16T02:53:39.013Z,993.16
2018-03-16T02:54:14.338Z,993.13
2018-03-16T02:54:50.169Z,993.14
2018-03-16T02:55:25.479Z,993.16
2018-03-16T02:56:01.232Z,993.14
2018-03-16T02:56:36.458Z,993.14
2018-03-16T02:57:11.774Z,993.14
2018-03-16T02:57:47.173Z,993.15
2018-03-16T02:58:22.272Z,993.19
2018-03-16T02:58:57.490Z,993.16
2018-03-16T02:59:32.609Z,993.12
2018-03-16T03:00:08.027Z,993.19
2018-03-16T03:00:45.933Z,993.15
2018-03-16T03:01:21.423Z,993.22
2018-03-16T03:01:56.852Z,993.20
2018-03-16T03:02:33.016Z,993.19
2018-03-16T03:03:08.418Z,993.16
2018-03-16T03:03:43.868Z,993.19
2018-03-16T03:04:19.089Z,993.23
2018-03-16T03:04:54.405Z,993.21
2018-03-16T03:05:29.810Z,993.16
2018-03-16T03:06:05.189Z,993.23
2018-03-16T03:06:40.620Z,993.19
2018-03-16T03:07:15.752Z,993.20
2018-03-16T03:07:51.211Z,993.21
2018-03-16T03:08:26.513Z,993.20
2018-03-16T03:09:01.912Z,993.19
2018-03-16T03:09:38.057Z,993.19
2018-03-16T03:10:13.381Z,993.20
2018-03-16T03:10:51.241Z,993.23
2018-03-16T03:11:26.740Z,993.19
2018-03-16T03:12:02.101Z,993.22
2018-03-16T03:12:37.317Z,993.26
2018-03-16T03:13:12.976Z,993.23
2018-03-16T03:13:48.401Z,993.22
2018-03-16T03:14:23.660Z,993.23
2018-03-16T03:14:59.160Z,993.23
2018-03-16T03:15:34.516Z,993.23
2018-03-16T03:16:09.738Z,993.27
2018-03-16T03:16:45.281Z,993.23
2018-03-16T03:17:20.778Z,993.24
2018-03-16T03:17:56.547Z,993.23
2018-03-16T03:18:32.374Z,993.21
2018-03-16T03:19:07.510Z,993.24
2018-03-16T03:19:42.919Z,993.23
2018-03-16T03:20:18.469Z,993.22
2018-03-16T03:20:53.880Z,993.21
2018-03-16T03:21:29.097Z,993.23
2018-03-16T03:22:04.520Z,993.22
2018-03-16T03:22:40.000Z,993.26
2018-03-16T03:23:15.701Z,993.23
2018-03-16T03:23:51.220Z,993.21
2018-03-16T03:24:26.637Z,993.24
2018-03-16T03:25:02.283Z,993.24
2018-03-16T03:25:37.978Z,993.22
2018-03-16T03:26:13.357Z,993.25
2018-03-16T03:26:48.665Z,993.27
2018-03-16T03:27:24.474Z,993.25
2018-03-16T03:27:59.786Z,993.26
2018-03-16T03:28:35.517Z,993.26
2018-03-16T03:29:11.044Z,993.26
2018-03-16T03:29:46.494Z,993.33
2018-03-16T03:30:21.661Z,993.30
2018-03-16T03:30:56.978Z,993.31
2018-03-16T03:31:32.330Z,993.31
2018-03-16T03:32:07.704Z,993.32
2018-03-16T03:32:43.225Z,993.30
2018-03-16T03:33:18.551Z,993.34
2018-03-16T03:33:53.958Z,993.29
2018-03-16T03:34:29.314Z,993.33
2018-03-16T03:35:04.907Z,993.30
2018-03-16T03:35:42.425Z,993.38
2018-03-16T03:36:17.853Z,993.36
2018-03-16T03:36:53.184Z,993.40
2018-03-16T03:37:28.298Z,993.40
2018-03-16T03:38:03.679Z,993.41
2018-03-16T03:38:38.929Z,993.46
2018-03-16T03:39:14.264Z,993.38
2018-03-16T03:39:49.695Z,993.37
2018-03-16T03:40:25.051Z,993.45
2018-03-16T03:41:00.357Z,993.47
2018-03-16T03:41:35.892Z,993.53
2018-03-16T03:42:10.984Z,993.45
2018-03-16T03:42:46.535Z,993.48
2018-03-16T03:43:21.813Z,993.47
2018-03-16T03:43:58.348Z,993.45
2018-03-16T03:44:33.471Z,993.47
2018-03-16T03:45:09.140Z,993.43
2018-03-16T03:45:46.562Z,993.54
2018-03-16T03:46:22.106Z,993.47
2018-03-16T03:46:57.622Z,993.48
2018-03-16T03:47:33.187Z,993.50
2018-03-16T03:48:08.654Z,993.57
2018-03-16T03:48:44.695Z,993.51
2018-03-16T03:49:20.214Z,993.53
2018-03-16T03:49:55.537Z,993.52
2018-03-16T03:50:30.848Z,993.57
2018-03-16T03:51:06.184Z,993.52
2018-03-16T03:51:41.765Z,993.58
2018-03-16T03:52:16.907Z,993.53
2018-03-16T03:52:53.422Z,993.54
2018-03-16T03:53:28.841Z,993.56
2018-03-16T03:54:04.188Z,993.56
2018-03-16T03:54:39.821Z,993.58
2018-03-16T03:55:15.326Z,993.53
2018-03-16T03:55:50.672Z,993.54
2018-03-16T03:56:25.980Z,993.58
2018-03-16T03:57:01.149Z,993.57
2018-03-16T03:57:36.339Z,993.57
2018-03-16T03:58:11.517Z,993.60
2018-03-16T03:58:46.908Z,993.58
2018-03-16T03:59:22.251Z,993.57
2018-03-16T03:59:57.549Z,993.59
2018-03-16T04:00:33.082Z,993.60
2018-03-16T04:01:08.490Z,993.61
2018-03-16T04:01:44.011Z,993.59
2018-03-16T04:02:19.408Z,993.64
2018-03-16T04:02:54.866Z,993.57
2018-03-16T04:03:30.005Z,993.60
2018-03-16T04:04:05.267Z,993.62
2018-03-16T04:04:43.424Z,993.57
2018-03-16T04:05:18.885Z,993.66
2018-03-16T04:05:54.325Z,993.60
2018-03-16T04:06:29.569Z,993.63
2018-03-16T04:07:04.889Z,993.65
2018-03-16T04:07:40.737Z,993.66
2018-03-16T04:08:16.247Z,993.66
2018-03-16T04:08:53.407Z,993.71
2018-03-16T04:09:29.041Z,993.65
2018-03-16T04:10:04.382Z,993.66
2018-03-16T04:10:39.812Z,993.68
2018-03-16T04:11:15.134Z,993.64
2018-03-16T04:11:53.023Z,993.67
2018-03-16T04:12:28.436Z,993.69
2018-03-16T04:13:03.665Z,993.72
2018-03-16T04:13:39.186Z,993.70
2018-03-16T04:14:14.509Z,993.67
2018-03-16T04:14:49.956Z,993.73
2018-03-16T04:15:25.464Z,993.66
2018-03-16T04:16:04.614Z,993.67
2018-03-16T04:16:39.944Z,993.69
2018-03-16T04:17:15.705Z,993.74
2018-03-16T04:17:50.944Z,993.73
2018-03-16T04:18:26.209Z,993.74
2018-03-16T04:19:02.031Z,993.73
2018-03-16T04:19:37.279Z,993.70
2018-03-16T04:20:12.686Z,993.75
2018-03-16T04:20:50.852Z,993.68
2018-03-16T04:21:26.359Z,993.72
2018-03-16T04:22:01.683Z,993.78
2018-03-16T04:22:37.181Z,993.77
2018-03-16T04:23:12.538Z,993.74
2018-03-16T04:23:48.648Z,993.75
2018-03-16T04:24:23.963Z,993.75
2018-03-16T04:24:59.262Z,993.70
2018-03-16T04:25:34.897Z,993.77
2018-03-16T04:26:12.010Z,993.74
2018-03-16T04:26:47.458Z,993.73
2018-03-16T04:27:22.669Z,993.81
2018-03-16T04:28:00.120Z,993.79
2018-03-16T04:28:35.563Z,993.83
2018-03-16T04:29:11.099Z,993.80
2018-03-16T04:29:46.910Z,993.80
2018-03-16T04:30:22.348Z,993.76
2018-03-16T04:30:57.793Z,993.78
2018-03-16T04:31:33.248Z,993.78
2018-03-16T04:32:08.509Z,993.79
2018-03-16T04:32:45.417Z,993.87
2018-03-16T04:33:20.939Z,993.83
2018-03-16T04:33:56.274Z,993.83
2018-03-16T04:34:31.773Z,993.84
2018-03-16T04:35:07.201Z,993.86
2018-03-16T04:35:42.625Z,993.89
2018-03-16T04:36:19.141Z,993.86
2018-03-16T04:36:54.571Z,993.83
2018-03-16T04:37:29.996Z,993.87
2018-03-16T04:38:05.764Z,993.89
2018-03-16T04:38:41.101Z,993.83
2018-03-16T04:39:16.551Z,993.84
2018-03-16T04:39:51.830Z,993.83
2018-03-16T04:40:27.444Z,993.85
2018-03-16T04:41:05.072Z,993.92
2018-03-16T04:41:40.410Z,993.90
2018-03-16T04:42:15.830Z,993.85
2018-03-16T04:42:53.603Z,993.89
2018-03-16T04:43:29.036Z,993.86
2018-03-16T04:44:04.352Z,993.89
2018-03-16T04:44:39.804Z,993.90
2018-03-16T04:45:15.325Z,993.90
2018-03-16T04:45:50.764Z,993.87
2018-03-16T04:46:26.269Z,993.91
2018-03-16T04:47:02.001Z,993.91
2018-03-16T04:47:37.437Z,993.91
2018-03-16T04:48:12.727Z,993.92
2018-03-16T04:48:49.754Z,993.89
2018-03-16T04:49:25.093Z,993.96
2018-03-16T04:50:00.697Z,993.92
2018-03-16T04:50:35.942Z,993.96
2018-03-16T04:51:13.642Z,993.96
2018-03-16T04:51:49.118Z,993.98
2018-03-16T04:52:24.516Z,993.94
2018-03-16T04:52:59.780Z,993.97
2018-03-16T04:53:35.602Z,993.96
2018-03-16T04:54:11.170Z,993.96
2018-03-16T04:54:46.778Z,993.99
2018-03-16T04:55:23.390Z,994.02
2018-03-16T04:55:58.815Z,993.99
2018-03-16T04:56:35.963Z,993.98
2018-03-16T04:57:11.385Z,993.97
2018-03-16T04:57:46.593Z,993.98
2018-03-16T04:58:21.881Z,993.98
2018-03-16T04:58:58.742Z,994.02
2018-03-16T04:59:34.438Z,994.01
2018-03-16T05:00:09.789Z,993.99
2018-03-16T05:00:45.268Z,993.99
2018-03-16T05:01:20.877Z,993.97
2018-03-16T05:01:55.994Z,994.03
2018-03-16T05:02:31.264Z,994.05
2018-03-16T05:03:06.479Z,993.94
2018-03-16T05:03:41.798Z,994.01
2018-03-16T05:04:17.035Z,994.01
2018-03-16T05:04:53.974Z,993.99
2018-03-16T05:05:29.275Z,993.97
2018-03-16T05:06:04.624Z,994.01
2018-03-16T05:06:40.314Z,993.99
2018-03-16T05:07:15.846Z,994.03
2018-03-16T05:07:51.356Z,993.98
2018-03-16T05:08:26.984Z,993.99
2018-03-16T05:09:02.485Z,994.01
2018-03-16T05:09:37.914Z,994.05
2018-03-16T05:10:13.238Z,994.03
2018-03-16T05:10:49.165Z,994.03
2018-03-16T05:11:26.081Z,994.04
2018-03-16T05:12:02.623Z,994.05
2018-03-16T05:12:38.030Z,994.00
2018-03-16T05:13:13.405Z,994.10
2018-03-16T05:13:49.138Z,994.08
2018-03-16T05:14:24.563Z,994.05
2018-03-16T05:15:01.273Z,994.08
2018-03-16T05:15:37.135Z,994.09
2018-03-16T05:16:12.827Z,994.07
2018-03-16T05:16:48.364Z,994.11
2018-03-16T05:17:23.763Z,994.12
2018-03-16T05:18:01.076Z,994.14
2018-03-16T05:18:36.303Z,994.13
2018-03-16T05:19:11.533Z,994.10
2018-03-16T05:19:46.943Z,994.10
2018-03-16T05:20:22.537Z,994.16
2018-03-16T05:20:57.798Z,994.15
2018-03-16T05:21:33.359Z,994.11
2018-03-16T05:22:08.963Z,994.17
2018-03-16T05:22:47.658Z,994.12
2018-03-16T05:23:22.943Z,994.22
2018-03-16T05:23:58.291Z,994.20
2018-03-16T05:24:34.498Z,994.22
2018-03-16T05:25:10.031Z,994.20
2018-03-16T05:25:45.543Z,994.20
2018-03-16T05:26:24.808Z,994.20
2018-03-16T05:27:00.120Z,994.25
2018-03-16T05:27:35.353Z,994.26
2018-03-16T05:28:10.482Z,994.28
2018-03-16T05:28:45.743Z,994.24
2018-03-16T05:29:21.177Z,994.25
2018-03-16T05:29:56.425Z,994.25
2018-03-16T05:30:31.733Z,994.27
2018-03-16T05:31:09.971Z,994.28
2018-03-16T05:31:45.477Z,994.31
2018-03-16T05:32:22.645Z,994.25
2018-03-16T05:33:01.349Z,994.33
2018-03-16T05:33:36.690Z,994.33
2018-03-16T05:34:12.203Z,994.31
2018-03-16T05:34:47.460Z,994.30
2018-03-16T05:35:22.889Z,994.33
2018-03-16T05:36:00.849Z,994.26
2018-03-16T05:36:37.894Z,994.34
2018-03-16T05:37:13.986Z,994.32
2018-03-16T05:37:51.033Z,994.32
2018-03-16T05:38:28.105Z,994.39
2018-03-16T05:39:03.470Z,994.33
2018-03-16T05:39:38.812Z,994.38
2018-03-16T05:40:15.019Z,994.40
2018-03-16T05:40:53.477Z,994.39
2018-03-16T05:41:33.786Z,994.46
2018-03-16T05:42:09.354Z,994.44
2018-03-16T05:42:44.765Z,994.50
2018-03-16T05:43:20.102Z,994.45
2018-03-16T05:43:55.617Z,994.45
2018-03-16T05:44:32.060Z,994.38
2018-03-16T05:45:07.664Z,994.39
2018-03-16T05:45:44.412Z,994.49
2018-03-16T05:46:20.046Z,994.42
2018-03-16T05:46:55.303Z,994.42
2018-03-16T05:47:30.931Z,994.50
2018-03-16T05:48:06.312Z,994.44
2018-03-16T05:48:41.916Z,994.51
2018-03-16T05:49:20.104Z,994.51
2018-03-16T05:49:55.417Z,994.48
2018-03-16T05:50:30.569Z,994.46
2018-03-16T05:51:05.888Z,994.51
2018-03-16T05:51:41.408Z,994.53
2018-03-16T05:52:20.025Z,994.46
2018-03-16T05:52:55.284Z,994.50
2018-03-16T05:53:30.597Z,994.50
2018-03-16T05:54:06.137Z,994.49
2018-03-16T05:54:41.650Z,994.54
2018-03-16T05:55:19.725Z,994.62
2018-03-16T05:55:55.344Z,994.53
2018-03-16T05:56:30.792Z,994.54
2018-03-16T05:57:06.519Z,994.56
2018-03-16T05:57:42.000Z,994.68
2018-03-16T05:58:17.496Z,994.60
2018-03-16T05:58:55.137Z,994.58
2018-03-16T05:59:30.435Z,994.60
2018-03-16T06:00:08.994Z,994.67
2018-03-16T06:00:45.041Z,994.71
2018-03-16T06:01:24.475Z,994.68
2018-03-16T06:01:59.993Z,994.67
2018-03-16T06:02:38.504Z,994.63
2018-03-16T06:03:14.042Z,994.71
2018-03-16T06:03:53.556Z,994.70
2018-03-16T06:04:29.368Z,994.69
2018-03-16T06:05:08.410Z,994.72
2018-03-16T06:05:43.634Z,994.67
2018-03-16T06:06:19.002Z,994.68
2018-03-16T06:06:57.580Z,994.70
2018-03-16T06:07:33.034Z,994.72
2018-03-16T06:08:11.692Z,994.68
2018-03-16T06:08:47.061Z,994.70
2018-03-16T06:09:25.384Z,994.69
2018-03-16T06:10:00.840Z,994.72
2018-03-16T06:10:38.401Z,994.77
2018-03-16T06:11:13.808Z,994.72
2018-03-16T06:11:49.163Z,994.71
2018-03-16T06:12:24.792Z,994.77
2018-03-16T06:13:03.557Z,994.77
2018-03-16T06:13:42.928Z,994.74
2018-03-16T06:14:18.248Z,994.75
2018-03-16T06:14:53.894Z,994.75
2018-03-16T06:15:29.352Z,994.75
2018-03-16T06:16:08.591Z,994.79
2018-03-16T06:16:47.657Z,994.80
2018-03-16T06:17:22.883Z,994.80
2018-03-16T06:17:58.513Z,994.85
2018-03-16T06:18:33.823Z,994.86
2018-03-16T06:19:17.249Z,994.82
2018-03-16T06:19:52.647Z,994.84
2018-03-16T06:20:28.185Z,994.81
2018-03-16T06:21:03.674Z,994.85
2018-03-16T06:21:39.160Z,994.87
2018-03-16T06:22:16.317Z,994.83
2018-03-16T06:22:51.664Z,994.93
2018-03-16T06:23:27.248Z,994.88
2018-03-16T06:24:05.680Z,994.84
2018-03-16T06:24:44.241Z,994.89
2018-03-16T06:25:19.453Z,994.87
2018-03-16T06:25:56.119Z,994.87
2018-03-16T06:26:31.791Z,994.88
2018-03-16T06:27:09.434Z,994.91
2018-03-16T06:27:44.998Z,994.88
2018-03-16T06:28:21.366Z,994.89
2018-03-16T06:28:56.918Z,994.86
2018-03-16T06:29:32.560Z,994.92
2018-03-16T06:30:07.952Z,994.91
2018-03-16T06:30:50.114Z,994.92
2018-03-16T06:31:27.642Z,994.95
2018-03-16T06:32:02.985Z,994.94
2018-03-16T06:32:40.094Z,994.95
2018-03-16T06:33:15.575Z,994.93
2018-03-16T06:33:51.005Z,994.98
2018-03-16T06:34:26.376Z,995.00
2018-03-16T06:35:01.749Z,995.00
2018-03-16T06:35:39.102Z,994.98
2018-03-16T06:36:14.312Z,994.98
2018-03-16T06:36:49.652Z,995.05
2018-03-16T06:37:24.866Z,995.02
2018-03-16T06:38:02.444Z,995.02
2018-03-16T06:38:38.472Z,995.02
2018-03-16T06:39:16.805Z,995.01
2018-03-16T06:39:55.239Z,995.05
2018-03-16T06:40:30.476Z,995.08
2018-03-16T06:41:06.136Z,995.04
2018-03-16T06:41:41.513Z,995.01
2018-03-16T06:42:16.837Z,995.06
2018-03-16T06:42:55.557Z,995.06
2018-03-16T06:43:30.896Z,995.08
2018-03-16T06:44:10.127Z,995.09
2018-03-16T06:44:46.028Z,995.05
2018-03-16T06:45:21.296Z,995.04
2018-03-16T06:45:59.024Z,995.08
2018-03-16T06:46:34.978Z,995.09
2018-03-16T06:47:13.113Z,995.17
2018-03-16T06:47:49.047Z,995.08
2018-03-16T06:48:24.363Z,995.12
2018-03-16T06:49:02.815Z,995.11
2018-03-16T06:49:38.531Z,995.12
2018-03-16T06:50:15.569Z,995.20
2018-03-16T06:50:51.010Z,995.13
2018-03-16T06:54:05.422Z,995.19
2018-03-16T06:54:43.249Z,995.25
2018-03-16T06:55:18.697Z,995.22
2018-03-16T06:55:57.042Z,995.22
2018-03-16T06:56:32.444Z,995.21
2018-03-16T06:57:07.769Z,995.22
2018-03-16T06:57:46.131Z,995.20
2018-03-16T06:58:21.808Z,995.22
2018-03-16T06:58:57.085Z,995.26
2018-03-16T06:59:32.429Z,995.22
2018-03-16T07:00:07.808Z,995.27
2018-03-16T07:00:46.737Z,995.24
2018-03-16T07:01:21.925Z,995.26
2018-03-16T07:01:57.175Z,995.26
2018-03-16T07:02:32.998Z,995.30
2018-03-16T07:03:10.058Z,995.30
2018-03-16T07:03:47.356Z,995.31
2018-03-16T07:04:23.645Z,995.33
2018-03-16T07:04:59.162Z,995.32
2018-03-16T07:05:34.502Z,995.37
2018-03-16T07:06:13.241Z,995.32
2018-03-16T07:06:52.089Z,995.36
2018-03-16T07:07:30.203Z,995.37
2018-03-16T07:08:05.902Z,995.38
2018-03-16T07:08:41.521Z,995.42
2018-03-16T07:09:16.972Z,995.42
2018-03-16T07:09:52.300Z,995.40
2018-03-16T07:10:31.143Z,995.40
2018-03-16T07:11:07.808Z,995.41
2018-03-16T07:11:43.342Z,995.43
2018-03-16T07:12:19.270Z,995.40
2018-03-16T07:12:54.922Z,995.42
2018-03-16T07:13:30.474Z,995.47
2018-03-16T07:14:05.947Z,995.44
2018-03-16T07:14:41.348Z,995.44
2018-03-16T07:15:16.931Z,995.44
2018-03-16T07:15:52.533Z,995.51
2018-03-16T07:16:28.244Z,995.46
2018-03-16T07:17:03.790Z,995.48
2018-03-16T07:17:39.582Z,995.50
2018-03-16T07:18:14.802Z,995.47
2018-03-16T07:18:50.171Z,995.50
2018-03-16T07:19:26.028Z,995.49
2018-03-16T07:20:01.910Z,995.53
2018-03-16T07:20:37.190Z,995.59
2018-03-16T07:21:12.550Z,995.54
2018-03-16T07:21:47.962Z,995.64
2018-03-16T07:22:23.512Z,995.62
2018-03-16T07:22:58.751Z,995.64
2018-03-16T07:23:33.908Z,995.60
2018-03-16T07:24:09.540Z,995.57
2018-03-16T07:24:44.887Z,995.63
2018-03-16T07:25:20.214Z,995.60
2018-03-16T07:25:56.343Z,995.63
2018-03-16T07:26:31.874Z,995.63
2018-03-16T07:27:07.112Z,995.65
2018-03-16T07:27:42.667Z,995.64
2018-03-16T07:28:18.237Z,995.68
2018-03-16T07:28:53.785Z,995.64
2018-03-16T07:29:28.988Z,995.68
2018-03-16T07:30:04.414Z,995.65
2018-03-16T07:30:40.886Z,995.66
2018-03-16T07:31:16.310Z,995.70
2018-03-16T07:31:51.835Z,995.73
2018-03-16T07:32:27.276Z,995.68
2018-03-16T07:33:02.643Z,995.65